This is the latest recevied weather packets stored in our database for station/object DG0PX-12. If no packets are shown the sender has not sent any weather packets the latest 10 day(s).
| Time | Temp. | Humidity | Pressure | Rain* | Wind** | Luminosity | Snow |
|---|---|---|---|---|---|---|---|
| 1777728594 | 29.44° C | 18% | 952.8 hPa | - | - | - | - |
| 1777727693 | 26.11° C | 21% | 952.8 hPa | - | - | - | - |
| 1777726793 | 28.33° C | 19% | 953.1 hPa | - | - | - | - |
| 1777725893 | 28.89° C | 19% | 953.4 hPa | - | - | - | - |
| 1777724993 | 28.89° C | 19% | 953.5 hPa | - | - | - | - |
| 1777724093 | 28.33° C | 19% | 953.7 hPa | - | - | - | - |
| 1777723193 | 28.33° C | 19% | 953.9 hPa | - | - | - | - |
| 1777722292 | 27.78° C | 20% | 954 hPa | - | - | - | - |
| 1777721392 | 24.44° C | 20% | 954.2 hPa | - | - | - | - |
| 1777720492 | 26.67° C | 19% | 954.3 hPa | - | - | - | - |
| 1777719592 | 27.78° C | 20% | 954.5 hPa | - | - | - | - |
| 1777718692 | 26.11° C | 23% | 954.6 hPa | - | - | - | - |
| 1777717792 | 23.89° C | 25% | 954.8 hPa | - | - | - | - |
| 1777716891 | 25.56° C | 25% | 954.9 hPa | - | - | - | - |
| 1777715991 | 21.67° C | 29% | 954.9 hPa | - | - | - | - |
| 1777715091 | 21.11° C | 31% | 955 hPa | - | - | - | - |
| 1777714191 | 20° C | 33% | 955.1 hPa | - | - | - | - |
| 1777713291 | 20.56° C | 33% | 955.1 hPa | - | - | - | - |
| 1777712391 | 19.44° C | 37% | 955.2 hPa | - | - | - | - |
| 1777711490 | 18.89° C | 38% | 955.3 hPa | - | - | - | - |
| 1777710590 | 20° C | 35% | 955.2 hPa | - | - | - | - |
| 1777709690 | 20.56° C | 35% | 955.2 hPa | - | - | - | - |
| 1777708790 | 18.33° C | 34% | 955.4 hPa | - | - | - | - |
| 1777707890 | 18.89° C | 35% | 955.4 hPa | - | - | - | - |
| 1777706990 | 18.89° C | 35% | 955.4 hPa | - | - | - | - |
* Rain since midnight (hover to see other rain measurements)
** Current wind speed in m/s (hover to see current wind gust speed)